createdAt,value
2019-02-09T00:01:33.045Z,19.60
2019-02-09T00:04:07.404Z,24.70
2019-02-09T00:06:41.693Z,22.20
2019-02-09T00:09:27.647Z,16.87
2019-02-09T00:12:12.786Z,28.85
2019-02-09T00:14:55.535Z,33.88
2019-02-09T00:17:29.652Z,27.27
2019-02-09T00:20:03.822Z,45.00
2019-02-09T00:22:38.019Z,28.95
2019-02-09T00:25:12.472Z,22.85
2019-02-09T00:27:47.579Z,21.65
2019-02-09T00:30:22.042Z,20.45
2019-02-09T00:33:08.268Z,23.00
2019-02-09T00:35:52.970Z,19.07
2019-02-09T00:38:35.991Z,20.60
2019-02-09T00:41:12.123Z,19.92
2019-02-09T00:43:54.865Z,19.67
2019-02-09T00:46:28.754Z,21.12
2019-02-09T00:49:02.546Z,19.80
2019-02-09T00:51:36.668Z,19.55
2019-02-09T00:54:10.383Z,18.45
2019-02-09T00:56:44.460Z,20.05
2019-02-09T00:59:18.504Z,17.17
2019-02-09T01:01:52.733Z,23.45
2019-02-09T01:04:26.757Z,18.17
2019-02-09T01:07:00.680Z,22.22
2019-02-09T01:09:34.516Z,20.48
2019-02-09T01:12:08.623Z,20.48
2019-02-09T01:14:42.803Z,24.72
2019-02-09T01:17:16.850Z,22.70
2019-02-09T01:19:50.858Z,19.37
2019-02-09T01:22:24.715Z,18.52
2019-02-09T01:24:58.505Z,18.30
2019-02-09T01:27:32.538Z,21.30
2019-02-09T01:30:09.648Z,18.00
2019-02-09T01:32:43.785Z,27.73
2019-02-09T01:35:29.722Z,19.70
2019-02-09T01:38:16.395Z,21.85
2019-02-09T01:41:02.145Z,28.87
2019-02-09T01:43:46.332Z,27.50
2019-02-09T01:46:30.297Z,29.25
2019-02-09T01:49:03.700Z,29.52
2019-02-09T01:51:37.592Z,30.10
2019-02-09T01:54:10.956Z,25.62
2019-02-09T01:56:43.988Z,30.45
2019-02-09T01:59:17.414Z,31.77
2019-02-09T02:01:50.920Z,37.53
2019-02-09T02:04:24.667Z,41.80
2019-02-09T02:06:57.821Z,44.63
2019-02-09T02:12:03.784Z,31.35
2019-02-09T02:14:37.261Z,27.42
2019-02-09T02:17:10.804Z,23.70
2019-02-09T02:19:44.544Z,24.65
2019-02-09T02:22:18.088Z,27.98
2019-02-09T02:24:51.655Z,50.23
2019-02-09T02:27:24.896Z,45.10
2019-02-09T02:30:08.529Z,49.48
2019-02-09T02:32:51.619Z,51.85
2019-02-09T02:35:37.622Z,54.30
2019-02-09T02:38:23.094Z,44.95
2019-02-09T02:41:10.122Z,44.00
2019-02-09T02:43:55.944Z,36.98
2019-02-09T02:46:37.972Z,42.33
2019-02-09T02:49:11.418Z,35.98
2019-02-09T02:51:44.744Z,39.73
2019-02-09T02:54:18.166Z,34.13
2019-02-09T02:56:51.625Z,35.33
2019-02-09T02:59:24.798Z,36.50
2019-02-09T03:04:31.249Z,39.63
2019-02-09T03:07:04.668Z,43.30
2019-02-09T03:09:37.768Z,41.13
2019-02-09T03:14:43.156Z,41.92
2019-02-09T03:19:48.316Z,34.98
2019-02-09T03:22:22.609Z,38.20
2019-02-09T03:24:56.961Z,39.92
2019-02-09T03:27:30.550Z,37.15
2019-02-09T03:30:04.052Z,41.00
2019-02-09T03:32:37.814Z,36.40
2019-02-09T03:35:23.621Z,38.35
2019-02-09T03:38:01.564Z,48.52
2019-02-09T03:40:44.257Z,51.05
2019-02-09T03:43:17.684Z,78.30
2019-02-09T03:45:52.260Z,55.05
2019-02-09T03:48:25.828Z,33.55
2019-02-09T03:50:59.356Z,37.53
2019-02-09T03:53:33.198Z,44.95
2019-02-09T03:56:06.522Z,42.38
2019-02-09T03:58:40.078Z,44.85
2019-02-09T04:01:13.407Z,41.50
2019-02-09T04:03:47.079Z,38.20
2019-02-09T04:06:20.746Z,24.07
2019-02-09T04:08:54.199Z,32.00
2019-02-09T04:11:27.545Z,30.90
2019-02-09T04:14:01.203Z,35.75
2019-02-09T04:16:34.320Z,31.62
2019-02-09T04:19:07.809Z,29.15
2019-02-09T04:21:41.231Z,35.23
2019-02-09T04:24:14.674Z,35.40
2019-02-09T04:26:48.132Z,42.15
2019-02-09T04:29:21.595Z,36.10
2019-02-09T04:31:55.116Z,36.25
2019-02-09T04:34:41.183Z,39.13
2019-02-09T04:37:24.981Z,38.92
2019-02-09T04:40:12.155Z,34.13
2019-02-09T04:42:55.462Z,34.50
2019-02-09T04:48:00.852Z,38.50
2019-02-09T04:50:34.459Z,34.78
2019-02-09T04:53:08.002Z,34.50
2019-02-09T04:55:41.795Z,35.33
2019-02-09T04:58:15.218Z,40.30
2019-02-09T05:00:48.737Z,43.68
2019-02-09T05:03:22.384Z,42.03
2019-02-09T05:05:55.416Z,38.10
2019-02-09T05:08:29.414Z,73.42
2019-02-09T05:11:02.944Z,90.07
2019-02-09T05:13:36.536Z,92.30
2019-02-09T05:16:10.068Z,81.60
2019-02-09T05:18:43.531Z,54.05
2019-02-09T05:21:16.963Z,46.80
2019-02-09T05:23:50.547Z,39.15
2019-02-09T05:26:23.951Z,37.03
2019-02-09T05:28:57.318Z,56.33
2019-02-09T05:31:30.960Z,68.80
2019-02-09T05:34:04.895Z,67.80
2019-02-09T05:36:38.028Z,72.15
2019-02-09T05:41:54.766Z,41.65
2019-02-09T05:44:40.035Z,51.60
2019-02-09T05:47:22.810Z,51.85
2019-02-09T05:49:56.487Z,46.68
2019-02-09T05:52:29.862Z,43.48
2019-02-09T05:55:05.031Z,73.35
2019-02-09T05:57:38.384Z,90.72
2019-02-09T06:00:16.436Z,119.65
2019-02-09T06:02:49.911Z,207.77
2019-02-09T06:05:27.062Z,209.57
2019-02-09T06:08:00.739Z,188.95
2019-02-09T06:10:34.583Z,221.90
2019-02-09T06:13:17.255Z,172.78
2019-02-09T06:15:51.912Z,125.60
2019-02-09T06:18:25.730Z,125.65
2019-02-09T06:20:59.590Z,80.40
2019-02-09T06:23:33.452Z,75.08
2019-02-09T06:26:07.073Z,97.62
2019-02-09T06:28:40.284Z,103.75
2019-02-09T06:31:13.856Z,87.30
2019-02-09T06:33:47.425Z,94.72
2019-02-09T06:36:21.595Z,115.82
2019-02-09T06:38:55.893Z,80.60
2019-02-09T06:41:29.507Z,69.97
2019-02-09T06:44:03.061Z,64.80
2019-02-09T06:46:36.435Z,44.27
2019-02-09T06:49:10.123Z,38.92
2019-02-09T06:51:44.037Z,40.75
2019-02-09T06:54:17.340Z,60.58
2019-02-09T06:56:50.603Z,70.00
2019-02-09T06:59:28.366Z,98.00
2019-02-09T07:02:02.759Z,68.40
2019-02-09T07:04:48.279Z,62.95
2019-02-09T07:07:32.602Z,80.00
2019-02-09T07:10:40.150Z,95.67
2019-02-09T07:13:14.571Z,116.47
2019-02-09T07:15:49.382Z,110.20
2019-02-09T07:18:22.986Z,78.40
2019-02-09T07:21:12.956Z,114.45
2019-02-09T07:23:46.605Z,78.97
2019-02-09T07:26:20.452Z,73.33
2019-02-09T07:28:54.104Z,119.40
2019-02-09T07:31:28.187Z,125.07
2019-02-09T07:34:02.198Z,73.12
2019-02-09T07:36:44.423Z,60.20
2019-02-09T07:39:20.199Z,67.08
2019-02-09T07:41:55.649Z,71.92
2019-02-09T07:44:29.447Z,53.95
2019-02-09T07:47:04.118Z,65.78
2019-02-09T07:49:38.274Z,64.65
2019-02-09T07:52:12.538Z,68.80
2019-02-09T07:54:46.532Z,71.47
2019-02-09T07:57:20.520Z,62.15
2019-02-09T07:59:54.942Z,62.17
2019-02-09T08:02:28.801Z,58.05
2019-02-09T08:05:03.531Z,49.48
2019-02-09T08:07:37.615Z,64.77
2019-02-09T08:10:14.294Z,72.82
2019-02-09T08:12:49.292Z,65.78
2019-02-09T08:15:24.909Z,72.25
2019-02-09T08:17:58.577Z,93.03
2019-02-09T08:20:34.073Z,77.40
2019-02-09T08:23:09.418Z,69.22
2019-02-09T08:25:43.992Z,75.45
2019-02-09T08:28:22.820Z,78.17
2019-02-09T08:30:56.959Z,72.37
2019-02-09T08:33:30.616Z,69.30
2019-02-09T08:36:16.150Z,55.75
2019-02-09T08:38:53.880Z,52.80
2019-02-09T08:41:27.775Z,51.20
2019-02-09T08:44:01.300Z,51.35
2019-02-09T08:46:35.722Z,63.00
2019-02-09T08:49:09.350Z,67.87
2019-02-09T08:51:44.272Z,86.45
2019-02-09T08:54:21.444Z,56.20
2019-02-09T08:56:55.794Z,56.15
2019-02-09T08:59:29.576Z,48.80
2019-02-09T09:02:06.334Z,47.20
2019-02-09T09:04:39.543Z,28.98
2019-02-09T09:07:13.523Z,32.67
2019-02-09T09:09:47.394Z,36.90
2019-02-09T09:12:20.830Z,31.80
2019-02-09T09:14:54.465Z,33.42
2019-02-09T09:17:29.036Z,32.03
2019-02-09T09:20:03.955Z,34.20
2019-02-09T09:22:37.508Z,32.58
2019-02-09T09:25:11.482Z,44.42
2019-02-09T09:27:46.499Z,45.25
2019-02-09T09:30:22.257Z,33.67
2019-02-09T09:32:56.041Z,23.87
2019-02-09T09:35:32.682Z,31.42
2019-02-09T09:38:07.210Z,39.53
2019-02-09T09:40:42.816Z,28.92
2019-02-09T09:43:19.224Z,37.42
2019-02-09T09:45:55.354Z,41.35
2019-02-09T09:48:29.656Z,39.45
2019-02-09T09:51:10.744Z,26.05
2019-02-09T09:53:45.106Z,34.00
2019-02-09T09:56:19.266Z,31.37
2019-02-09T09:58:53.923Z,36.05
2019-02-09T10:01:27.648Z,37.23
2019-02-09T10:04:04.130Z,36.68
2019-02-09T10:06:38.058Z,35.35
2019-02-09T10:09:12.355Z,32.38
2019-02-09T10:11:45.761Z,32.78
2019-02-09T10:14:20.269Z,26.57
2019-02-09T10:17:05.103Z,25.82
2019-02-09T10:19:43.192Z,17.57
2019-02-09T10:22:18.793Z,18.45
2019-02-09T10:24:52.921Z,20.43
2019-02-09T10:27:26.826Z,23.20
2019-02-09T10:30:01.099Z,21.52
2019-02-09T10:32:34.833Z,21.55
2019-02-09T10:35:09.864Z,20.55
2019-02-09T10:37:44.335Z,23.05
2019-02-09T10:40:25.139Z,20.25
2019-02-09T10:43:13.026Z,18.67
2019-02-09T10:45:58.658Z,19.45
2019-02-09T10:48:42.410Z,19.05
2019-02-09T10:51:22.084Z,29.35
2019-02-09T10:53:55.868Z,34.20
2019-02-09T10:56:29.569Z,26.37
2019-02-09T10:59:03.360Z,18.35
2019-02-09T11:01:42.134Z,31.52
2019-02-09T11:04:27.094Z,33.85
2019-02-09T11:07:13.605Z,30.30
2019-02-09T11:10:00.973Z,24.35
2019-02-09T11:12:46.888Z,20.72
2019-02-09T11:15:31.428Z,32.13
2019-02-09T11:18:05.417Z,23.40
2019-02-09T11:20:45.333Z,33.75
2019-02-09T11:23:19.380Z,48.63
2019-02-09T11:25:53.368Z,32.83
2019-02-09T11:28:27.642Z,24.47
2019-02-09T11:31:01.460Z,19.60
2019-02-09T11:33:37.378Z,18.10
2019-02-09T11:36:14.431Z,22.60
2019-02-09T11:39:00.577Z,22.32
2019-02-09T11:41:45.936Z,27.17
2019-02-09T11:44:24.340Z,27.85
2019-02-09T11:46:58.234Z,23.85
2019-02-09T11:49:33.219Z,25.55
2019-02-09T11:52:07.809Z,18.65
2019-02-09T11:54:46.016Z,21.07
2019-02-09T11:57:20.304Z,16.32
2019-02-09T11:59:54.462Z,18.90
2019-02-09T12:02:28.434Z,15.95
2019-02-09T12:05:02.332Z,24.55
2019-02-09T12:07:36.127Z,21.00
2019-02-09T12:10:12.184Z,14.33
2019-02-09T12:12:45.802Z,17.80
2019-02-09T12:15:25.558Z,21.97
2019-02-09T12:17:59.610Z,18.73
2019-02-09T12:20:33.568Z,18.00
2019-02-09T12:23:10.940Z,26.65
2019-02-09T12:25:44.772Z,16.32
2019-02-09T12:28:18.352Z,16.27
2019-02-09T12:30:52.220Z,22.32
2019-02-09T12:33:26.298Z,20.40
2019-02-09T12:36:02.833Z,20.85
2019-02-09T12:38:48.539Z,20.55
2019-02-09T12:41:33.551Z,14.70
2019-02-09T12:44:08.594Z,17.90
2019-02-09T12:46:42.520Z,23.60
2019-02-09T12:49:17.039Z,46.00
2019-02-09T12:51:51.198Z,42.50
2019-02-09T12:54:25.578Z,24.65
2019-02-09T12:56:59.298Z,23.10
2019-02-09T12:59:32.837Z,22.17
2019-02-09T13:02:07.332Z,31.40
2019-02-09T13:04:40.794Z,35.98
2019-02-09T13:07:14.360Z,18.52
2019-02-09T13:09:47.858Z,21.80
2019-02-09T13:12:21.217Z,25.32
2019-02-09T13:15:07.070Z,62.08
2019-02-09T13:17:53.420Z,15.50
2019-02-09T13:20:36.783Z,22.82
2019-02-09T13:23:11.470Z,17.77
2019-02-09T13:25:44.722Z,15.05
2019-02-09T13:30:51.035Z,49.90
2019-02-09T13:33:24.973Z,18.10
2019-02-09T13:35:58.999Z,84.05
2019-02-09T13:38:45.212Z,17.17
2019-02-09T13:41:31.445Z,32.60
2019-02-09T13:44:16.402Z,16.15
2019-02-09T13:46:50.114Z,23.62
2019-02-09T13:49:32.859Z,23.85
2019-02-09T13:52:06.494Z,20.43
2019-02-09T13:54:40.431Z,21.55
2019-02-09T13:57:14.884Z,22.73
2019-02-09T13:59:48.971Z,18.15
2019-02-09T14:02:23.721Z,19.42
2019-02-09T14:04:57.283Z,18.45
2019-02-09T14:07:30.794Z,24.10
2019-02-09T14:10:04.332Z,20.25
2019-02-09T14:12:38.374Z,38.28
2019-02-09T14:15:26.090Z,90.72
2019-02-09T14:18:02.406Z,47.33
2019-02-09T14:20:36.204Z,38.20
2019-02-09T14:23:10.066Z,25.68
2019-02-09T14:25:45.679Z,27.90
2019-02-09T14:28:21.086Z,24.57
2019-02-09T14:30:55.188Z,19.32
2019-02-09T14:33:29.619Z,20.95
2019-02-09T14:36:03.559Z,19.82
2019-02-09T14:38:37.580Z,18.98
2019-02-09T14:41:16.460Z,25.25
2019-02-09T14:43:51.610Z,26.87
2019-02-09T14:46:25.860Z,30.10
2019-02-09T14:49:02.223Z,50.58
2019-02-09T14:51:36.183Z,52.90
2019-02-09T14:54:21.866Z,39.23
2019-02-09T14:57:05.846Z,65.37
2019-02-09T14:59:40.920Z,44.85
2019-02-09T15:02:20.914Z,35.48
2019-02-09T15:04:55.223Z,38.10
2019-02-09T15:07:31.879Z,39.65
2019-02-09T15:10:06.015Z,61.28
2019-02-09T15:12:39.934Z,63.78
2019-02-09T15:15:23.056Z,57.25
2019-02-09T15:17:56.724Z,60.90
2019-02-09T15:20:33.066Z,67.15
2019-02-09T15:23:06.944Z,105.92
2019-02-09T15:25:40.424Z,117.33
2019-02-09T15:28:15.531Z,96.05
2019-02-09T15:30:49.208Z,81.17
2019-02-09T15:33:22.931Z,99.30
2019-02-09T15:35:58.684Z,111.62
2019-02-09T15:38:32.551Z,100.55
2019-02-09T15:41:15.121Z,87.25
2019-02-09T15:43:50.222Z,92.13
2019-02-09T15:46:24.984Z,55.95
2019-02-09T15:49:02.091Z,55.92
2019-02-09T15:51:36.791Z,64.30
2019-02-09T15:54:10.757Z,71.47
2019-02-09T15:56:45.800Z,81.30
2019-02-09T15:59:19.550Z,85.30
2019-02-09T16:01:54.564Z,64.15
2019-02-09T16:04:30.107Z,72.32
2019-02-09T16:07:04.254Z,62.53
2019-02-09T16:09:39.171Z,65.17
2019-02-09T16:12:15.844Z,95.17
2019-02-09T16:14:49.906Z,310.10
2019-02-09T16:17:24.461Z,191.88
2019-02-09T16:19:58.061Z,144.00
2019-02-09T16:22:33.032Z,192.03
2019-02-09T16:25:07.773Z,327.50
2019-02-09T16:27:41.740Z,210.55
2019-02-09T16:30:18.778Z,235.82
2019-02-09T16:32:52.558Z,409.63
2019-02-09T16:35:26.700Z,413.37
2019-02-09T16:38:01.007Z,269.18
2019-02-09T16:40:44.376Z,184.45
2019-02-09T16:43:28.667Z,299.88
2019-02-09T16:46:11.358Z,333.10
2019-02-09T16:48:45.918Z,327.38
2019-02-09T16:51:21.179Z,323.70
2019-02-09T16:53:55.733Z,370.57
2019-02-09T16:56:30.218Z,379.85
2019-02-09T16:59:04.414Z,382.20
2019-02-09T17:01:38.132Z,415.75
2019-02-09T17:04:12.762Z,398.48
2019-02-09T17:06:47.431Z,424.10
2019-02-09T17:09:21.219Z,327.35
2019-02-09T17:11:55.123Z,278.23
2019-02-09T17:14:28.930Z,260.15
2019-02-09T17:17:02.932Z,203.52
2019-02-09T17:19:37.414Z,206.50
2019-02-09T17:22:11.589Z,261.45
2019-02-09T17:24:45.285Z,243.17
2019-02-09T17:27:19.387Z,256.77
2019-02-09T17:29:53.854Z,261.48
2019-02-09T17:32:27.306Z,193.00
2019-02-09T17:35:01.741Z,192.32
2019-02-09T17:37:35.344Z,160.43
2019-02-09T17:40:20.970Z,165.68
2019-02-09T17:42:55.393Z,164.88
2019-02-09T17:45:43.005Z,194.82
2019-02-09T17:48:16.932Z,183.45
2019-02-09T17:50:51.773Z,191.20
2019-02-09T17:53:27.251Z,199.57
2019-02-09T17:56:01.754Z,215.65
2019-02-09T17:58:36.456Z,249.20
2019-02-09T18:01:15.398Z,251.82
2019-02-09T18:03:49.968Z,270.45
2019-02-09T18:06:23.575Z,317.48
2019-02-09T18:08:57.078Z,294.25
2019-02-09T18:11:30.506Z,296.55
2019-02-09T18:14:05.409Z,288.70
2019-02-09T18:16:39.190Z,281.95
2019-02-09T18:19:12.250Z,328.18
2019-02-09T18:21:45.610Z,216.02
2019-02-09T18:24:19.103Z,244.60
2019-02-09T18:26:53.086Z,146.82
2019-02-09T18:29:26.530Z,117.67
2019-02-09T18:32:14.208Z,128.27
2019-02-09T18:34:57.482Z,101.40
2019-02-09T18:37:31.996Z,101.00
2019-02-09T18:40:18.881Z,108.75
2019-02-09T18:42:55.134Z,138.68
2019-02-09T18:45:29.914Z,133.07
2019-02-09T18:48:03.742Z,120.30
2019-02-09T18:50:37.752Z,111.62
2019-02-09T18:53:12.818Z,137.55
2019-02-09T18:55:46.544Z,138.20
2019-02-09T18:58:20.552Z,118.02
2019-02-09T19:00:54.627Z,91.82
2019-02-09T19:03:29.112Z,84.75
2019-02-09T19:06:02.865Z,75.50
2019-02-09T19:08:45.202Z,59.23
2019-02-09T19:13:53.046Z,63.85
2019-02-09T19:16:27.185Z,82.92
2019-02-09T19:19:01.651Z,102.40
2019-02-09T19:21:35.554Z,122.22
2019-02-09T19:24:09.400Z,108.97
2019-02-09T19:26:42.591Z,108.72
2019-02-09T19:31:49.610Z,170.25
2019-02-09T19:34:24.202Z,194.13
2019-02-09T19:36:58.104Z,169.65
2019-02-09T19:39:32.885Z,217.30
2019-02-09T19:42:18.186Z,353.07
2019-02-09T19:45:04.046Z,383.80
2019-02-09T19:47:49.966Z,359.20
2019-02-09T19:50:35.911Z,325.35
2019-02-09T19:53:22.039Z,215.45
2019-02-09T19:56:04.209Z,211.62
2019-02-09T19:58:37.958Z,223.78
2019-02-09T20:01:11.494Z,235.85
2019-02-09T20:03:45.112Z,212.25
2019-02-09T20:06:18.740Z,191.10
2019-02-09T20:08:51.892Z,197.85
2019-02-09T20:13:57.290Z,123.80
2019-02-09T20:16:30.775Z,151.63
2019-02-09T20:19:05.585Z,153.87
2019-02-09T20:21:39.413Z,158.15
2019-02-09T20:24:12.914Z,157.88
2019-02-09T20:26:46.454Z,153.00
2019-02-09T20:29:20.936Z,157.82
2019-02-09T20:31:54.794Z,146.02
2019-02-09T20:34:30.606Z,150.25
2019-02-09T20:37:04.636Z,153.42
2019-02-09T20:39:38.979Z,155.35
2019-02-09T20:42:12.961Z,146.68
2019-02-09T20:44:47.303Z,137.72
2019-02-09T20:47:21.432Z,122.05
2019-02-09T20:49:55.398Z,101.70
2019-02-09T20:52:39.741Z,89.97
2019-02-09T20:55:13.748Z,78.37
2019-02-09T20:58:01.149Z,88.65
2019-02-09T21:00:46.035Z,85.95
2019-02-09T21:03:25.006Z,82.02
2019-02-09T21:05:58.877Z,104.85
2019-02-09T21:08:32.628Z,105.72
2019-02-09T21:11:08.215Z,122.60
2019-02-09T21:13:41.974Z,130.90
2019-02-09T21:16:15.624Z,130.93
2019-02-09T21:18:49.716Z,127.80
2019-02-09T21:21:23.283Z,110.92
2019-02-09T21:23:56.852Z,102.15
2019-02-09T21:26:30.432Z,96.10
2019-02-09T21:29:04.106Z,84.17
2019-02-09T21:31:38.200Z,102.67
2019-02-09T21:34:12.240Z,107.00
2019-02-09T21:36:45.659Z,88.20
2019-02-09T21:39:18.719Z,77.55
2019-02-09T21:41:52.780Z,68.15
2019-02-09T21:44:28.228Z,55.48
2019-02-09T21:47:02.441Z,61.23
2019-02-09T21:49:37.320Z,64.15
2019-02-09T21:52:11.152Z,78.47
2019-02-09T21:54:46.027Z,132.05
2019-02-09T21:57:19.978Z,128.23
2019-02-09T21:59:53.885Z,418.73
2019-02-09T22:02:42.617Z,217.20
2019-02-09T22:05:27.854Z,216.85
2019-02-09T22:08:19.028Z,209.62
2019-02-09T22:10:47.026Z,209.37
2019-02-09T22:13:33.798Z,173.35
2019-02-09T22:16:10.010Z,179.65
2019-02-09T22:18:43.680Z,142.18
2019-02-09T22:21:17.397Z,132.43
2019-02-09T22:23:53.712Z,119.97
2019-02-09T22:26:27.470Z,100.45
2019-02-09T22:29:01.428Z,103.87
2019-02-09T22:31:34.852Z,97.95
2019-02-09T22:34:07.901Z,90.05
2019-02-09T22:39:15.304Z,130.65
2019-02-09T22:41:49.454Z,152.62
2019-02-09T22:44:35.280Z,121.02
2019-02-09T22:47:11.758Z,105.32
2019-02-09T22:49:46.236Z,80.38
2019-02-09T22:52:19.260Z,85.90
2019-02-09T22:54:53.344Z,82.15
2019-02-09T22:57:26.776Z,137.18
2019-02-09T23:00:00.226Z,133.18
2019-02-09T23:02:33.584Z,102.87
2019-02-09T23:05:44.534Z,134.80
2019-02-09T23:08:18.368Z,164.15
2019-02-09T23:10:51.957Z,170.87
2019-02-09T23:13:25.644Z,159.97
2019-02-09T23:16:00.368Z,156.78
2019-02-09T23:18:33.942Z,157.00
2019-02-09T23:21:08.962Z,124.90
2019-02-09T23:23:42.336Z,103.07
2019-02-09T23:26:15.660Z,86.42
2019-02-09T23:29:01.406Z,100.97
2019-02-09T23:31:45.831Z,114.88
2019-02-09T23:34:30.656Z,108.52
2019-02-09T23:37:04.598Z,113.95
2019-02-09T23:39:47.726Z,118.77
2019-02-09T23:42:33.339Z,119.30
2019-02-09T23:45:06.556Z,115.37
2019-02-09T23:47:40.084Z,105.20
2019-02-09T23:50:16.646Z,97.47
2019-02-09T23:52:55.924Z,97.25
2019-02-09T23:55:29.362Z,90.10
2019-02-09T23:58:02.824Z,79.75
